sensor_id;sensor_type;location;lat;lon;timestamp;P1;durP1;ratioP1;P2;durP2;ratioP2
9671;SDS011;4874;43.568;27.824;2023-05-16T00:04:13;14.40;;;8.23;;
9671;SDS011;4874;43.568;27.824;2023-05-16T00:06:40;14.40;;;9.18;;
9671;SDS011;4874;43.568;27.824;2023-05-16T00:09:07;12.15;;;8.65;;
9671;SDS011;4874;43.568;27.824;2023-05-16T00:14:00;13.93;;;8.63;;
9671;SDS011;4874;43.568;27.824;2023-05-16T00:16:27;13.63;;;7.18;;
9671;SDS011;4874;43.568;27.824;2023-05-16T00:18:55;10.32;;;6.93;;
9671;SDS011;4874;43.568;27.824;2023-05-16T00:21:26;13.43;;;8.48;;
9671;SDS011;4874;43.568;27.824;2023-05-16T00:23:53;16.67;;;8.13;;
9671;SDS011;4874;43.568;27.824;2023-05-16T00:26:20;13.82;;;8.43;;
9671;SDS011;4874;43.568;27.824;2023-05-16T00:28:47;11.98;;;8.02;;
9671;SDS011;4874;43.568;27.824;2023-05-16T00:31:14;14.00;;;8.63;;
9671;SDS011;4874;43.568;27.824;2023-05-16T00:33:41;13.63;;;7.80;;
9671;SDS011;4874;43.568;27.824;2023-05-16T00:36:07;11.80;;;7.32;;
9671;SDS011;4874;43.568;27.824;2023-05-16T00:38:34;12.10;;;7.68;;
9671;SDS011;4874;43.568;27.824;2023-05-16T00:41:02;11.35;;;6.75;;
9671;SDS011;4874;43.568;27.824;2023-05-16T00:43:29;12.35;;;6.70;;
9671;SDS011;4874;43.568;27.824;2023-05-16T00:45:56;9.88;;;6.30;;
9671;SDS011;4874;43.568;27.824;2023-05-16T00:48:23;11.60;;;6.10;;
9671;SDS011;4874;43.568;27.824;2023-05-16T00:50:51;8.82;;;6.32;;
9671;SDS011;4874;43.568;27.824;2023-05-16T00:53:18;11.35;;;6.13;;
9671;SDS011;4874;43.568;27.824;2023-05-16T00:55:45;8.93;;;5.70;;
9671;SDS011;4874;43.568;27.824;2023-05-16T00:58:12;9.70;;;5.47;;
9671;SDS011;4874;43.568;27.824;2023-05-16T01:00:40;11.32;;;6.25;;
9671;SDS011;4874;43.568;27.824;2023-05-16T01:03:07;9.27;;;5.93;;
9671;SDS011;4874;43.568;27.824;2023-05-16T01:05:34;10.95;;;6.25;;
9671;SDS011;4874;43.568;27.824;2023-05-16T01:08:01;12.10;;;6.28;;
9671;SDS011;4874;43.568;27.824;2023-05-16T01:13:38;9.77;;;5.93;;
9671;SDS011;4874;43.568;27.824;2023-05-16T01:16:21;10.65;;;5.75;;
9671;SDS011;4874;43.568;27.824;2023-05-16T01:22:10;11.07;;;6.57;;
9671;SDS011;4874;43.568;27.824;2023-05-16T01:25:10;11.23;;;6.15;;
9671;SDS011;4874;43.568;27.824;2023-05-16T01:27:45;8.50;;;5.80;;
9671;SDS011;4874;43.568;27.824;2023-05-16T01:30:16;9.70;;;6.43;;
9671;SDS011;4874;43.568;27.824;2023-05-16T01:32:43;11.38;;;6.30;;
9671;SDS011;4874;43.568;27.824;2023-05-16T01:35:12;13.70;;;6.63;;
9671;SDS011;4874;43.568;27.824;2023-05-16T01:40:32;11.93;;;6.68;;
9671;SDS011;4874;43.568;27.824;2023-05-16T01:43:01;10.32;;;6.13;;
9671;SDS011;4874;43.568;27.824;2023-05-16T01:45:34;11.90;;;6.20;;
9671;SDS011;4874;43.568;27.824;2023-05-16T01:48:12;12.18;;;5.97;;
9671;SDS011;4874;43.568;27.824;2023-05-16T01:50:44;10.32;;;6.43;;
9671;SDS011;4874;43.568;27.824;2023-05-16T01:53:19;11.35;;;6.50;;
9671;SDS011;4874;43.568;27.824;2023-05-16T01:55:51;12.10;;;7.03;;
9671;SDS011;4874;43.568;27.824;2023-05-16T01:58:21;13.63;;;7.13;;
9671;SDS011;4874;43.568;27.824;2023-05-16T02:00:52;10.68;;;7.28;;
9671;SDS011;4874;43.568;27.824;2023-05-16T02:03:19;10.02;;;7.20;;
9671;SDS011;4874;43.568;27.824;2023-05-16T02:05:46;11.27;;;7.57;;
9671;SDS011;4874;43.568;27.824;2023-05-16T02:08:12;14.15;;;8.90;;
9671;SDS011;4874;43.568;27.824;2023-05-16T02:10:39;12.77;;;7.30;;
9671;SDS011;4874;43.568;27.824;2023-05-16T02:13:06;15.85;;;8.73;;
9671;SDS011;4874;43.568;27.824;2023-05-16T02:17:59;14.05;;;8.48;;
9671;SDS011;4874;43.568;27.824;2023-05-16T02:22:53;13.02;;;8.25;;
9671;SDS011;4874;43.568;27.824;2023-05-16T02:27:46;13.93;;;8.02;;
9671;SDS011;4874;43.568;27.824;2023-05-16T02:30:13;16.17;;;9.30;;
9671;SDS011;4874;43.568;27.824;2023-05-16T02:32:40;16.17;;;10.50;;
9671;SDS011;4874;43.568;27.824;2023-05-16T02:35:10;14.50;;;9.23;;
9671;SDS011;4874;43.568;27.824;2023-05-16T02:37:37;18.73;;;10.57;;
9671;SDS011;4874;43.568;27.824;2023-05-16T02:40:04;15.18;;;9.63;;
9671;SDS011;4874;43.568;27.824;2023-05-16T02:42:31;20.02;;;10.50;;
9671;SDS011;4874;43.568;27.824;2023-05-16T02:44:58;16.45;;;9.80;;
9671;SDS011;4874;43.568;27.824;2023-05-16T02:47:25;15.52;;;10.75;;
9671;SDS011;4874;43.568;27.824;2023-05-16T02:49:52;17.08;;;10.10;;
9671;SDS011;4874;43.568;27.824;2023-05-16T02:52:19;15.07;;;10.07;;
9671;SDS011;4874;43.568;27.824;2023-05-16T02:54:46;15.77;;;10.25;;
9671;SDS011;4874;43.568;27.824;2023-05-16T02:57:25;18.90;;;10.90;;
9671;SDS011;4874;43.568;27.824;2023-05-16T02:59:52;16.52;;;10.07;;
9671;SDS011;4874;43.568;27.824;2023-05-16T03:02:18;19.27;;;10.70;;
9671;SDS011;4874;43.568;27.824;2023-05-16T03:04:45;17.33;;;10.63;;
9671;SDS011;4874;43.568;27.824;2023-05-16T03:09:39;21.13;;;10.95;;
9671;SDS011;4874;43.568;27.824;2023-05-16T03:12:05;18.15;;;10.77;;
9671;SDS011;4874;43.568;27.824;2023-05-16T03:14:32;17.50;;;10.52;;
9671;SDS011;4874;43.568;27.824;2023-05-16T03:16:59;17.20;;;10.48;;
9671;SDS011;4874;43.568;27.824;2023-05-16T03:19:26;19.23;;;11.05;;
9671;SDS011;4874;43.568;27.824;2023-05-16T03:21:52;19.08;;;11.48;;
9671;SDS011;4874;43.568;27.824;2023-05-16T03:26:48;16.42;;;9.85;;
9671;SDS011;4874;43.568;27.824;2023-05-16T03:29:15;13.60;;;9.20;;
9671;SDS011;4874;43.568;27.824;2023-05-16T03:34:08;16.13;;;9.80;;
9671;SDS011;4874;43.568;27.824;2023-05-16T03:39:01;12.52;;;8.32;;
9671;SDS011;4874;43.568;27.824;2023-05-16T03:43:55;17.38;;;8.25;;
9671;SDS011;4874;43.568;27.824;2023-05-16T03:48:48;14.18;;;7.85;;
9671;SDS011;4874;43.568;27.824;2023-05-16T03:51:14;14.57;;;8.13;;
9671;SDS011;4874;43.568;27.824;2023-05-16T03:56:08;10.95;;;7.28;;
9671;SDS011;4874;43.568;27.824;2023-05-16T03:58:35;11.38;;;7.32;;
9671;SDS011;4874;43.568;27.824;2023-05-16T04:01:01;11.15;;;6.95;;
9671;SDS011;4874;43.568;27.824;2023-05-16T04:03:28;10.10;;;6.78;;
9671;SDS011;4874;43.568;27.824;2023-05-16T04:05:56;11.88;;;6.65;;
9671;SDS011;4874;43.568;27.824;2023-05-16T04:08:23;11.73;;;7.35;;
9671;SDS011;4874;43.568;27.824;2023-05-16T04:10:50;13.23;;;7.13;;
9671;SDS011;4874;43.568;27.824;2023-05-16T04:13:17;13.05;;;8.18;;
9671;SDS011;4874;43.568;27.824;2023-05-16T04:15:43;13.88;;;7.63;;
9671;SDS011;4874;43.568;27.824;2023-05-16T04:18:11;13.80;;;7.90;;
9671;SDS011;4874;43.568;27.824;2023-05-16T04:20:38;12.90;;;6.88;;
9671;SDS011;4874;43.568;27.824;2023-05-16T04:23:05;11.70;;;7.07;;
9671;SDS011;4874;43.568;27.824;2023-05-16T04:27:58;9.32;;;6.68;;
9671;SDS011;4874;43.568;27.824;2023-05-16T04:32:51;10.98;;;6.28;;
9671;SDS011;4874;43.568;27.824;2023-05-16T04:35:18;11.05;;;6.43;;
9671;SDS011;4874;43.568;27.824;2023-05-16T04:37:45;11.55;;;6.10;;
9671;SDS011;4874;43.568;27.824;2023-05-16T04:40:12;14.73;;;7.47;;
9671;SDS011;4874;43.568;27.824;2023-05-16T04:42:39;12.05;;;6.55;;
9671;SDS011;4874;43.568;27.824;2023-05-16T04:45:06;12.13;;;6.75;;
9671;SDS011;4874;43.568;27.824;2023-05-16T04:47:36;12.27;;;6.88;;
9671;SDS011;4874;43.568;27.824;2023-05-16T04:50:04;11.95;;;6.38;;
9671;SDS011;4874;43.568;27.824;2023-05-16T04:52:31;9.70;;;6.40;;
9671;SDS011;4874;43.568;27.824;2023-05-16T04:54:59;12.07;;;5.95;;
9671;SDS011;4874;43.568;27.824;2023-05-16T04:57:25;9.68;;;6.07;;
9671;SDS011;4874;43.568;27.824;2023-05-16T04:59:53;10.05;;;5.78;;
9671;SDS011;4874;43.568;27.824;2023-05-16T05:02:19;8.93;;;5.97;;
9671;SDS011;4874;43.568;27.824;2023-05-16T05:04:46;19.75;;;7.07;;
9671;SDS011;4874;43.568;27.824;2023-05-16T05:07:13;11.48;;;6.50;;
9671;SDS011;4874;43.568;27.824;2023-05-16T05:09:39;10.13;;;5.30;;
9671;SDS011;4874;43.568;27.824;2023-05-16T05:12:08;12.30;;;5.90;;
9671;SDS011;4874;43.568;27.824;2023-05-16T05:14:35;13.98;;;6.03;;
9671;SDS011;4874;43.568;27.824;2023-05-16T05:17:01;11.57;;;5.72;;
9671;SDS011;4874;43.568;27.824;2023-05-16T05:19:28;8.98;;;5.72;;
9671;SDS011;4874;43.568;27.824;2023-05-16T05:21:55;10.45;;;5.22;;
9671;SDS011;4874;43.568;27.824;2023-05-16T05:24:22;11.48;;;5.30;;
9671;SDS011;4874;43.568;27.824;2023-05-16T05:26:49;7.93;;;4.35;;
9671;SDS011;4874;43.568;27.824;2023-05-16T05:29:16;11.38;;;4.85;;
9671;SDS011;4874;43.568;27.824;2023-05-16T05:31:43;11.63;;;4.75;;
9671;SDS011;4874;43.568;27.824;2023-05-16T05:34:10;7.72;;;5.20;;
9671;SDS011;4874;43.568;27.824;2023-05-16T05:36:36;6.53;;;4.28;;
9671;SDS011;4874;43.568;27.824;2023-05-16T05:39:03;8.77;;;4.93;;
9671;SDS011;4874;43.568;27.824;2023-05-16T05:41:30;8.82;;;4.70;;
9671;SDS011;4874;43.568;27.824;2023-05-16T05:43:57;8.93;;;4.45;;
9671;SDS011;4874;43.568;27.824;2023-05-16T05:46:23;8.15;;;4.57;;
9671;SDS011;4874;43.568;27.824;2023-05-16T05:48:51;10.63;;;4.63;;
9671;SDS011;4874;43.568;27.824;2023-05-16T05:51:18;9.05;;;4.97;;
9671;SDS011;4874;43.568;27.824;2023-05-16T05:53:44;9.73;;;4.03;;
9671;SDS011;4874;43.568;27.824;2023-05-16T05:56:11;9.95;;;4.35;;
9671;SDS011;4874;43.568;27.824;2023-05-16T05:58:38;9.60;;;4.80;;
9671;SDS011;4874;43.568;27.824;2023-05-16T06:01:07;8.75;;;3.65;;
9671;SDS011;4874;43.568;27.824;2023-05-16T06:03:36;7.13;;;4.07;;
9671;SDS011;4874;43.568;27.824;2023-05-16T06:06:03;7.63;;;3.85;;
9671;SDS011;4874;43.568;27.824;2023-05-16T06:08:30;8.40;;;5.18;;
9671;SDS011;4874;43.568;27.824;2023-05-16T06:10:56;10.07;;;4.45;;
9671;SDS011;4874;43.568;27.824;2023-05-16T06:13:23;9.15;;;3.75;;
9671;SDS011;4874;43.568;27.824;2023-05-16T06:15:53;10.05;;;4.53;;
9671;SDS011;4874;43.568;27.824;2023-05-16T06:18:20;10.93;;;4.93;;
9671;SDS011;4874;43.568;27.824;2023-05-16T06:20:47;7.40;;;3.60;;
9671;SDS011;4874;43.568;27.824;2023-05-16T06:23:13;6.68;;;3.47;;
9671;SDS011;4874;43.568;27.824;2023-05-16T06:25:40;8.18;;;3.83;;
9671;SDS011;4874;43.568;27.824;2023-05-16T06:28:08;7.22;;;3.60;;
9671;SDS011;4874;43.568;27.824;2023-05-16T06:30:35;6.70;;;3.67;;
9671;SDS011;4874;43.568;27.824;2023-05-16T06:33:02;6.78;;;3.50;;
9671;SDS011;4874;43.568;27.824;2023-05-16T06:35:28;9.75;;;3.97;;
9671;SDS011;4874;43.568;27.824;2023-05-16T06:37:55;8.60;;;3.80;;
9671;SDS011;4874;43.568;27.824;2023-05-16T06:40:22;8.13;;;3.25;;
9671;SDS011;4874;43.568;27.824;2023-05-16T06:42:48;9.43;;;3.78;;
9671;SDS011;4874;43.568;27.824;2023-05-16T06:45:15;5.68;;;2.65;;
9671;SDS011;4874;43.568;27.824;2023-05-16T06:47:42;6.07;;;3.15;;
9671;SDS011;4874;43.568;27.824;2023-05-16T06:50:09;7.53;;;3.22;;
9671;SDS011;4874;43.568;27.824;2023-05-16T06:52:36;7.95;;;3.88;;
9671;SDS011;4874;43.568;27.824;2023-05-16T06:55:03;8.27;;;3.47;;
9671;SDS011;4874;43.568;27.824;2023-05-16T06:57:31;10.68;;;3.70;;
9671;SDS011;4874;43.568;27.824;2023-05-16T06:59:57;7.93;;;3.47;;
9671;SDS011;4874;43.568;27.824;2023-05-16T07:02:24;8.88;;;3.40;;
9671;SDS011;4874;43.568;27.824;2023-05-16T07:04:51;7.80;;;3.65;;
9671;SDS011;4874;43.568;27.824;2023-05-16T07:07:18;8.48;;;3.40;;
9671;SDS011;4874;43.568;27.824;2023-05-16T07:09:45;5.18;;;2.65;;
9671;SDS011;4874;43.568;27.824;2023-05-16T07:12:12;7.68;;;3.38;;
9671;SDS011;4874;43.568;27.824;2023-05-16T07:14:39;9.98;;;3.58;;
9671;SDS011;4874;43.568;27.824;2023-05-16T07:17:07;6.07;;;3.78;;
9671;SDS011;4874;43.568;27.824;2023-05-16T07:19:33;5.50;;;3.20;;
9671;SDS011;4874;43.568;27.824;2023-05-16T07:22:00;5.57;;;2.95;;
9671;SDS011;4874;43.568;27.824;2023-05-16T07:24:27;7.72;;;2.50;;
9671;SDS011;4874;43.568;27.824;2023-05-16T07:26:54;5.75;;;2.90;;
9671;SDS011;4874;43.568;27.824;2023-05-16T07:29:21;6.40;;;2.50;;
9671;SDS011;4874;43.568;27.824;2023-05-16T07:31:48;6.45;;;2.58;;
9671;SDS011;4874;43.568;27.824;2023-05-16T07:34:14;5.80;;;2.90;;
9671;SDS011;4874;43.568;27.824;2023-05-16T07:36:41;6.50;;;2.63;;
9671;SDS011;4874;43.568;27.824;2023-05-16T07:39:08;6.25;;;2.53;;
9671;SDS011;4874;43.568;27.824;2023-05-16T07:41:35;5.85;;;2.35;;
9671;SDS011;4874;43.568;27.824;2023-05-16T07:44:01;5.82;;;2.90;;
9671;SDS011;4874;43.568;27.824;2023-05-16T07:46:28;7.20;;;2.72;;
9671;SDS011;4874;43.568;27.824;2023-05-16T07:48:55;6.38;;;2.60;;
9671;SDS011;4874;43.568;27.824;2023-05-16T07:51:22;6.28;;;2.28;;
9671;SDS011;4874;43.568;27.824;2023-05-16T07:53:49;5.28;;;2.90;;
9671;SDS011;4874;43.568;27.824;2023-05-16T07:56:16;6.40;;;2.72;;
9671;SDS011;4874;43.568;27.824;2023-05-16T07:58:43;5.57;;;2.70;;
9671;SDS011;4874;43.568;27.824;2023-05-16T08:01:10;10.43;;;2.95;;
9671;SDS011;4874;43.568;27.824;2023-05-16T08:03:37;7.18;;;2.88;;
9671;SDS011;4874;43.568;27.824;2023-05-16T08:06:04;9.18;;;4.78;;
9671;SDS011;4874;43.568;27.824;2023-05-16T08:08:31;7.32;;;2.83;;
9671;SDS011;4874;43.568;27.824;2023-05-16T08:10:58;26.08;;;5.10;;
9671;SDS011;4874;43.568;27.824;2023-05-16T08:13:25;6.40;;;2.78;;
9671;SDS011;4874;43.568;27.824;2023-05-16T08:15:51;6.20;;;2.40;;
9671;SDS011;4874;43.568;27.824;2023-05-16T08:18:18;7.25;;;3.03;;
9671;SDS011;4874;43.568;27.824;2023-05-16T08:20:47;13.63;;;5.45;;
9671;SDS011;4874;43.568;27.824;2023-05-16T08:23:14;7.75;;;3.22;;
9671;SDS011;4874;43.568;27.824;2023-05-16T08:25:41;5.82;;;2.50;;
9671;SDS011;4874;43.568;27.824;2023-05-16T08:28:08;8.30;;;3.13;;
9671;SDS011;4874;43.568;27.824;2023-05-16T08:30:34;5.07;;;2.20;;
9671;SDS011;4874;43.568;27.824;2023-05-16T08:33:01;3.88;;;2.28;;
9671;SDS011;4874;43.568;27.824;2023-05-16T08:35:30;6.43;;;2.47;;
9671;SDS011;4874;43.568;27.824;2023-05-16T08:37:57;6.65;;;2.60;;
9671;SDS011;4874;43.568;27.824;2023-05-16T08:40:25;3.20;;;1.70;;
9671;SDS011;4874;43.568;27.824;2023-05-16T08:42:52;5.45;;;2.13;;
9671;SDS011;4874;43.568;27.824;2023-05-16T08:45:20;4.25;;;2.25;;
9671;SDS011;4874;43.568;27.824;2023-05-16T08:47:48;5.00;;;1.95;;
9671;SDS011;4874;43.568;27.824;2023-05-16T08:50:18;8.10;;;2.78;;
9671;SDS011;4874;43.568;27.824;2023-05-16T08:52:46;5.43;;;2.03;;
9671;SDS011;4874;43.568;27.824;2023-05-16T08:55:18;6.78;;;2.45;;
9671;SDS011;4874;43.568;27.824;2023-05-16T08:57:48;5.97;;;2.47;;
9671;SDS011;4874;43.568;27.824;2023-05-16T09:00:16;6.70;;;2.70;;
9671;SDS011;4874;43.568;27.824;2023-05-16T09:02:44;4.97;;;2.22;;
9671;SDS011;4874;43.568;27.824;2023-05-16T09:05:12;5.18;;;2.10;;
9671;SDS011;4874;43.568;27.824;2023-05-16T09:07:41;4.97;;;2.22;;
9671;SDS011;4874;43.568;27.824;2023-05-16T09:10:09;5.55;;;2.80;;
9671;SDS011;4874;43.568;27.824;2023-05-16T09:12:37;5.85;;;2.13;;
9671;SDS011;4874;43.568;27.824;2023-05-16T09:15:05;8.18;;;2.45;;
9671;SDS011;4874;43.568;27.824;2023-05-16T09:17:34;7.15;;;2.60;;
9671;SDS011;4874;43.568;27.824;2023-05-16T09:22:36;4.38;;;2.55;;
9671;SDS011;4874;43.568;27.824;2023-05-16T09:25:04;4.35;;;1.90;;
9671;SDS011;4874;43.568;27.824;2023-05-16T09:27:33;5.35;;;2.22;;
9671;SDS011;4874;43.568;27.824;2023-05-16T09:30:00;3.97;;;2.10;;
9671;SDS011;4874;43.568;27.824;2023-05-16T09:32:27;4.63;;;2.00;;
9671;SDS011;4874;43.568;27.824;2023-05-16T09:34:54;4.68;;;2.13;;
9671;SDS011;4874;43.568;27.824;2023-05-16T09:37:23;4.72;;;2.00;;
9671;SDS011;4874;43.568;27.824;2023-05-16T09:39:52;4.40;;;1.70;;
9671;SDS011;4874;43.568;27.824;2023-05-16T09:42:22;3.90;;;1.92;;
9671;SDS011;4874;43.568;27.824;2023-05-16T09:44:51;5.35;;;1.90;;
9671;SDS011;4874;43.568;27.824;2023-05-16T09:47:20;4.30;;;1.80;;
9671;SDS011;4874;43.568;27.824;2023-05-16T09:49:51;3.63;;;1.38;;
9671;SDS011;4874;43.568;27.824;2023-05-16T09:52:18;2.88;;;1.38;;
9671;SDS011;4874;43.568;27.824;2023-05-16T09:54:46;4.75;;;1.23;;
9671;SDS011;4874;43.568;27.824;2023-05-16T09:57:16;3.53;;;1.58;;
9671;SDS011;4874;43.568;27.824;2023-05-16T09:59:47;3.40;;;1.88;;
9671;SDS011;4874;43.568;27.824;2023-05-16T10:02:13;6.72;;;1.88;;
9671;SDS011;4874;43.568;27.824;2023-05-16T10:04:41;4.05;;;1.70;;
9671;SDS011;4874;43.568;27.824;2023-05-16T10:07:08;4.97;;;1.80;;
9671;SDS011;4874;43.568;27.824;2023-05-16T10:09:36;3.55;;;1.67;;
9671;SDS011;4874;43.568;27.824;2023-05-16T10:12:05;4.50;;;1.67;;
9671;SDS011;4874;43.568;27.824;2023-05-16T10:14:37;5.30;;;1.55;;
9671;SDS011;4874;43.568;27.824;2023-05-16T10:17:07;4.43;;;1.63;;
9671;SDS011;4874;43.568;27.824;2023-05-16T10:19:36;3.90;;;1.85;;
9671;SDS011;4874;43.568;27.824;2023-05-16T10:22:05;4.35;;;1.50;;
9671;SDS011;4874;43.568;27.824;2023-05-16T10:24:53;4.63;;;1.83;;
9671;SDS011;4874;43.568;27.824;2023-05-16T10:27:30;3.55;;;1.85;;
9671;SDS011;4874;43.568;27.824;2023-05-16T10:29:57;2.70;;;1.45;;
9671;SDS011;4874;43.568;27.824;2023-05-16T10:32:25;3.10;;;1.70;;
9671;SDS011;4874;43.568;27.824;2023-05-16T10:34:53;4.25;;;1.60;;
9671;SDS011;4874;43.568;27.824;2023-05-16T10:37:29;4.47;;;1.60;;
9671;SDS011;4874;43.568;27.824;2023-05-16T10:40:00;5.20;;;2.13;;
9671;SDS011;4874;43.568;27.824;2023-05-16T10:42:31;4.18;;;1.80;;
9671;SDS011;4874;43.568;27.824;2023-05-16T10:45:08;4.68;;;2.10;;
9671;SDS011;4874;43.568;27.824;2023-05-16T10:47:55;3.03;;;1.43;;
9671;SDS011;4874;43.568;27.824;2023-05-16T10:50:37;4.57;;;1.58;;
9671;SDS011;4874;43.568;27.824;2023-05-16T11:06:24;6.03;;;1.60;;
9671;SDS011;4874;43.568;27.824;2023-05-16T11:11:52;5.32;;;1.70;;
9671;SDS011;4874;43.568;27.824;2023-05-16T11:17:01;4.10;;;1.60;;
9671;SDS011;4874;43.568;27.824;2023-05-16T11:19:37;5.78;;;1.83;;
9671;SDS011;4874;43.568;27.824;2023-05-16T11:22:05;6.28;;;1.83;;
9671;SDS011;4874;43.568;27.824;2023-05-16T11:25:04;5.15;;;1.45;;
9671;SDS011;4874;43.568;27.824;2023-05-16T11:27:42;3.50;;;1.30;;
9671;SDS011;4874;43.568;27.824;2023-05-16T11:30:12;5.97;;;2.25;;
9671;SDS011;4874;43.568;27.824;2023-05-16T11:32:41;3.47;;;1.80;;
9671;SDS011;4874;43.568;27.824;2023-05-16T11:35:10;5.75;;;1.70;;
9671;SDS011;4874;43.568;27.824;2023-05-16T11:37:40;3.05;;;1.13;;
9671;SDS011;4874;43.568;27.824;2023-05-16T11:40:08;9.23;;;1.85;;
9671;SDS011;4874;43.568;27.824;2023-05-16T11:42:41;4.97;;;1.50;;
9671;SDS011;4874;43.568;27.824;2023-05-16T11:45:10;3.58;;;1.40;;
9671;SDS011;4874;43.568;27.824;2023-05-16T11:47:38;8.13;;;2.00;;
9671;SDS011;4874;43.568;27.824;2023-05-16T11:50:06;4.95;;;2.00;;
9671;SDS011;4874;43.568;27.824;2023-05-16T11:52:38;6.65;;;1.70;;
9671;SDS011;4874;43.568;27.824;2023-05-16T11:55:06;6.47;;;2.22;;
9671;SDS011;4874;43.568;27.824;2023-05-16T11:57:39;6.18;;;1.83;;
9671;SDS011;4874;43.568;27.824;2023-05-16T12:00:15;6.43;;;2.03;;
9671;SDS011;4874;43.568;27.824;2023-05-16T12:02:45;5.30;;;1.60;;
9671;SDS011;4874;43.568;27.824;2023-05-16T12:05:13;4.75;;;1.95;;
9671;SDS011;4874;43.568;27.824;2023-05-16T12:07:44;6.88;;;2.10;;
9671;SDS011;4874;43.568;27.824;2023-05-16T12:10:13;5.75;;;1.55;;
9671;SDS011;4874;43.568;27.824;2023-05-16T12:12:41;3.50;;;1.73;;
9671;SDS011;4874;43.568;27.824;2023-05-16T12:15:10;7.20;;;2.38;;
9671;SDS011;4874;43.568;27.824;2023-05-16T12:17:39;3.47;;;1.45;;
9671;SDS011;4874;43.568;27.824;2023-05-16T12:20:07;4.20;;;1.73;;
9671;SDS011;4874;43.568;27.824;2023-05-16T12:22:40;5.82;;;1.70;;
9671;SDS011;4874;43.568;27.824;2023-05-16T12:27:51;4.25;;;1.60;;
9671;SDS011;4874;43.568;27.824;2023-05-16T12:30:23;5.50;;;1.52;;
9671;SDS011;4874;43.568;27.824;2023-05-16T12:32:57;9.05;;;2.13;;
9671;SDS011;4874;43.568;27.824;2023-05-16T12:35:24;4.45;;;1.67;;
9671;SDS011;4874;43.568;27.824;2023-05-16T12:37:55;5.22;;;1.70;;
9671;SDS011;4874;43.568;27.824;2023-05-16T12:40:22;11.68;;;3.20;;
9671;SDS011;4874;43.568;27.824;2023-05-16T12:42:49;5.22;;;1.98;;
9671;SDS011;4874;43.568;27.824;2023-05-16T12:45:20;5.40;;;1.92;;
9671;SDS011;4874;43.568;27.824;2023-05-16T12:47:48;3.03;;;1.67;;
9671;SDS011;4874;43.568;27.824;2023-05-16T12:50:16;4.95;;;1.80;;
9671;SDS011;4874;43.568;27.824;2023-05-16T12:52:49;6.20;;;1.70;;
9671;SDS011;4874;43.568;27.824;2023-05-16T12:55:17;6.47;;;2.33;;
9671;SDS011;4874;43.568;27.824;2023-05-16T12:57:46;5.68;;;2.20;;
9671;SDS011;4874;43.568;27.824;2023-05-16T13:00:14;5.85;;;2.92;;
9671;SDS011;4874;43.568;27.824;2023-05-16T13:02:44;6.10;;;2.72;;
9671;SDS011;4874;43.568;27.824;2023-05-16T13:05:12;7.57;;;2.20;;
9671;SDS011;4874;43.568;27.824;2023-05-16T13:07:39;6.18;;;2.60;;
9671;SDS011;4874;43.568;27.824;2023-05-16T13:10:06;5.35;;;2.28;;
9671;SDS011;4874;43.568;27.824;2023-05-16T13:12:40;5.78;;;1.80;;
9671;SDS011;4874;43.568;27.824;2023-05-16T13:15:07;5.00;;;2.10;;
9671;SDS011;4874;43.568;27.824;2023-05-16T13:17:39;3.75;;;2.08;;
9671;SDS011;4874;43.568;27.824;2023-05-16T13:20:09;7.35;;;2.50;;
9671;SDS011;4874;43.568;27.824;2023-05-16T13:22:41;6.90;;;2.08;;
9671;SDS011;4874;43.568;27.824;2023-05-16T13:25:09;5.55;;;2.42;;
9671;SDS011;4874;43.568;27.824;2023-05-16T13:27:36;5.32;;;2.70;;
9671;SDS011;4874;43.568;27.824;2023-05-16T13:30:03;4.82;;;1.83;;
9671;SDS011;4874;43.568;27.824;2023-05-16T13:32:30;5.97;;;1.65;;
9671;SDS011;4874;43.568;27.824;2023-05-16T13:34:57;4.18;;;1.88;;
9671;SDS011;4874;43.568;27.824;2023-05-16T13:37:24;5.13;;;1.90;;
9671;SDS011;4874;43.568;27.824;2023-05-16T13:39:51;4.65;;;1.60;;
9671;SDS011;4874;43.568;27.824;2023-05-16T13:42:20;4.65;;;1.80;;
9671;SDS011;4874;43.568;27.824;2023-05-16T13:44:47;6.65;;;2.50;;
9671;SDS011;4874;43.568;27.824;2023-05-16T13:47:14;3.20;;;1.40;;
9671;SDS011;4874;43.568;27.824;2023-05-16T13:49:41;3.97;;;1.77;;
9671;SDS011;4874;43.568;27.824;2023-05-16T13:52:08;6.40;;;2.15;;
9671;SDS011;4874;43.568;27.824;2023-05-16T13:54:34;5.07;;;1.95;;
9671;SDS011;4874;43.568;27.824;2023-05-16T13:57:01;4.22;;;1.65;;
9671;SDS011;4874;43.568;27.824;2023-05-16T13:59:28;4.75;;;1.58;;
9671;SDS011;4874;43.568;27.824;2023-05-16T14:02:15;6.45;;;1.70;;
9671;SDS011;4874;43.568;27.824;2023-05-16T14:04:42;3.58;;;1.83;;
9671;SDS011;4874;43.568;27.824;2023-05-16T14:07:09;3.63;;;1.63;;
9671;SDS011;4874;43.568;27.824;2023-05-16T14:09:36;6.18;;;2.10;;
9671;SDS011;4874;43.568;27.824;2023-05-16T14:12:07;5.82;;;1.92;;
9671;SDS011;4874;43.568;27.824;2023-05-16T14:14:34;5.50;;;2.80;;
9671;SDS011;4874;43.568;27.824;2023-05-16T14:17:04;4.80;;;2.03;;
9671;SDS011;4874;43.568;27.824;2023-05-16T14:19:32;3.72;;;2.08;;
9671;SDS011;4874;43.568;27.824;2023-05-16T14:21:59;8.15;;;2.45;;
9671;SDS011;4874;43.568;27.824;2023-05-16T14:24:26;5.32;;;1.90;;
9671;SDS011;4874;43.568;27.824;2023-05-16T14:26:53;5.28;;;2.10;;
9671;SDS011;4874;43.568;27.824;2023-05-16T14:29:20;4.10;;;1.90;;
9671;SDS011;4874;43.568;27.824;2023-05-16T14:31:47;6.80;;;2.17;;
9671;SDS011;4874;43.568;27.824;2023-05-16T14:34:14;6.32;;;2.20;;
9671;SDS011;4874;43.568;27.824;2023-05-16T14:36:41;4.88;;;2.22;;
9671;SDS011;4874;43.568;27.824;2023-05-16T14:39:08;4.43;;;1.70;;
9671;SDS011;4874;43.568;27.824;2023-05-16T14:41:35;4.30;;;1.98;;
9671;SDS011;4874;43.568;27.824;2023-05-16T14:44:02;6.03;;;1.90;;
9671;SDS011;4874;43.568;27.824;2023-05-16T14:46:29;6.93;;;1.92;;
9671;SDS011;4874;43.568;27.824;2023-05-16T14:48:56;5.50;;;2.28;;
9671;SDS011;4874;43.568;27.824;2023-05-16T14:51:23;6.25;;;2.00;;
9671;SDS011;4874;43.568;27.824;2023-05-16T14:53:50;6.00;;;1.95;;
9671;SDS011;4874;43.568;27.824;2023-05-16T14:56:17;5.00;;;2.00;;
9671;SDS011;4874;43.568;27.824;2023-05-16T14:58:46;6.30;;;2.42;;
9671;SDS011;4874;43.568;27.824;2023-05-16T15:01:12;4.60;;;2.15;;
9671;SDS011;4874;43.568;27.824;2023-05-16T15:03:40;5.53;;;2.33;;
9671;SDS011;4874;43.568;27.824;2023-05-16T15:06:10;6.53;;;2.67;;
9671;SDS011;4874;43.568;27.824;2023-05-16T15:08:37;5.45;;;2.42;;
9671;SDS011;4874;43.568;27.824;2023-05-16T15:11:04;5.90;;;2.30;;
9671;SDS011;4874;43.568;27.824;2023-05-16T15:13:31;6.70;;;2.38;;
9671;SDS011;4874;43.568;27.824;2023-05-16T15:15:57;8.98;;;2.53;;
9671;SDS011;4874;43.568;27.824;2023-05-16T15:18:24;8.05;;;2.50;;
9671;SDS011;4874;43.568;27.824;2023-05-16T15:20:51;6.95;;;2.53;;
9671;SDS011;4874;43.568;27.824;2023-05-16T15:23:20;8.93;;;2.55;;
9671;SDS011;4874;43.568;27.824;2023-05-16T15:25:47;5.47;;;2.33;;
9671;SDS011;4874;43.568;27.824;2023-05-16T15:28:14;5.63;;;2.70;;
9671;SDS011;4874;43.568;27.824;2023-05-16T15:30:41;8.38;;;2.90;;
9671;SDS011;4874;43.568;27.824;2023-05-16T15:33:08;7.63;;;2.80;;
9671;SDS011;4874;43.568;27.824;2023-05-16T15:35:35;8.20;;;3.22;;
9671;SDS011;4874;43.568;27.824;2023-05-16T15:38:02;5.75;;;3.20;;
9671;SDS011;4874;43.568;27.824;2023-05-16T15:40:28;8.45;;;3.47;;
9671;SDS011;4874;43.568;27.824;2023-05-16T15:42:55;7.32;;;3.20;;
9671;SDS011;4874;43.568;27.824;2023-05-16T15:45:22;8.15;;;3.28;;
9671;SDS011;4874;43.568;27.824;2023-05-16T15:47:49;7.55;;;2.92;;
9671;SDS011;4874;43.568;27.824;2023-05-16T15:50:16;9.23;;;3.70;;
9671;SDS011;4874;43.568;27.824;2023-05-16T15:52:42;5.90;;;2.80;;
9671;SDS011;4874;43.568;27.824;2023-05-16T15:55:10;10.27;;;3.15;;
9671;SDS011;4874;43.568;27.824;2023-05-16T15:57:37;11.35;;;3.50;;
9671;SDS011;4874;43.568;27.824;2023-05-16T16:00:04;8.02;;;3.45;;
9671;SDS011;4874;43.568;27.824;2023-05-16T16:02:31;10.13;;;3.90;;
9671;SDS011;4874;43.568;27.824;2023-05-16T16:04:58;10.60;;;4.47;;
9671;SDS011;4874;43.568;27.824;2023-05-16T16:07:25;13.20;;;4.38;;
9671;SDS011;4874;43.568;27.824;2023-05-16T16:09:52;4.93;;;2.92;;